Terminal Aerodrome Forecast
Issued by NWS Chicago, IL

Home | Current Version | Previous Version | Text Only | Print | Product List | Glossary Off
Versions: 1 2 3 4 5 6 7 8 9 10 11 12 13 14 15 16 17 18 19 20 21 22 23 24 25 26 27 28 29 30

000
FTUS43 KLOT 010844 AAA
TAFRFD
TAF AMD
KRFD 010844Z 0109/0206 VRB03KT P6SM BKN025 BKN045
     FM011500 05007KT P6SM FEW025 BKN200
     FM020100 03005KT P6SM BKN180=

USA.gov is the U.S. government's official web portal to all federal, state and local government web resources and services.